Time;durP1;ratioP1;P1;durP2;ratioP2;P2;SDS_P1;SDS_P2;PMS_P1;PMS_P2;Temp;Humidity;BMP_temperature;BMP_pressure;BME280_temperature;BME280_humidity;BME280_pressure;Samples;Min_cycle;Max_cycle;Signal;HPM_P1;HPM_P2
2022/09/27 00:00:02;;;;;;;2.45;0.77;;;;;;;;;;4959180;28;20049;-66
2022/09/27 00:02:29;;;;;;;1.95;0.73;;;;;;;;;;4972968;28;20043;-66
2022/09/27 00:04:56;;;;;;;7.45;1.40;;;;;;;;;;4972678;28;20051;-66
2022/09/27 00:07:23;;;;;;;5.35;1.40;;;;;;;;;;4972591;28;20070;-66
2022/09/27 00:09:49;;;;;;;6.95;2.20;;;;;;;;;;4972486;28;20415;-66
2022/09/27 00:12:15;;;;;;;5.28;1.95;;;;;;;;;;4972544;28;20158;-66
2022/09/27 00:14:42;;;;;;;5.15;1.30;;;;;;;;;;4972798;28;20050;-66
2022/09/27 00:17:08;;;;;;;4.93;1.80;;;;;;;;;;4972150;28;20046;-66
2022/09/27 00:19:34;;;;;;;4.25;1.30;;;;;;;;;;4972488;28;20388;-66
2022/09/27 00:22:02;;;;;;;6.97;2.53;;;;;;;;;;4972429;28;20059;-66
2022/09/27 00:24:28;;;;;;;6.18;2.83;;;;;;;;;;4972488;28;20047;-66
2022/09/27 00:26:55;;;;;;;6.40;2.55;;;;;;;;;;4972427;28;20050;-66
2022/09/27 00:29:21;;;;;;;4.55;2.10;;;;;;;;;;4972584;28;20049;-66
2022/09/27 00:31:48;;;;;;;4.93;1.08;;;;;;;;;;4972563;28;20051;-66
2022/09/27 00:34:19;;;;;;;2.80;0.95;;;;;;;;;;4972486;28;20049;-66
2022/09/27 00:36:45;;;;;;;9.60;2.63;;;;;;;;;;4972404;28;20051;-66
2022/09/27 00:39:12;;;;;;;8.45;3.15;;;;;;;;;;4972199;28;20505;-66
2022/09/27 00:41:38;;;;;;;4.57;1.50;;;;;;;;;;4972836;28;20046;-66
2022/09/27 00:44:25;;;;;;;4.18;1.35;;;;;;;;;;4975934;28;20422;-66
2022/09/27 00:47:03;;;;;;;2.03;1.02;;;;;;;;;;4975834;28;20050;-66
2022/09/27 00:49:30;;;;;;;4.82;0.77;;;;;;;;;;4975926;28;20065;-66
2022/09/27 00:51:58;;;;;;;4.32;0.93;;;;;;;;;;4975676;28;20047;-66
2022/09/27 00:54:26;;;;;;;4.22;0.80;;;;;;;;;;4975851;28;20054;-66
2022/09/27 00:56:53;;;;;;;5.00;0.93;;;;;;;;;;4975678;28;20073;-66
2022/09/27 00:59:29;;;;;;;4.23;0.90;;;;;;;;;;4975429;28;20495;-66
2022/09/27 01:01:55;;;;;;;3.33;0.77;;;;;;;;;;4975551;28;20058;-66
2022/09/27 01:04:24;;;;;;;4.20;0.73;;;;;;;;;;4975429;28;20089;-66
2022/09/27 01:06:51;;;;;;;4.28;1.23;;;;;;;;;;4975545;28;20455;-66
2022/09/27 01:09:17;;;;;;;6.07;2.90;;;;;;;;;;4975295;28;20073;-66
2022/09/27 01:11:47;;;;;;;8.45;4.03;;;;;;;;;;4975262;28;20058;-66
2022/09/27 01:14:19;;;;;;;4.55;1.48;;;;;;;;;;4975323;28;20570;-66
2022/09/27 01:17:01;;;;;;;6.70;1.20;;;;;;;;;;4975229;28;20054;-66
2022/09/27 01:19:43;;;;;;;2.42;0.90;;;;;;;;;;4975220;28;20053;-66
2022/09/27 01:22:27;;;;;;;5.97;1.00;;;;;;;;;;4975455;28;20051;-66
2022/09/27 01:25:06;;;;;;;4.65;0.68;;;;;;;;;;4975439;28;20058;-66
2022/09/27 01:27:41;;;;;;;6.93;1.42;;;;;;;;;;4975273;28;20047;-66
2022/09/27 01:30:11;;;;;;;3.67;0.70;;;;;;;;;;4974023;28;20422;-66
2022/09/27 01:32:50;;;;;;;6.55;0.90;;;;;;;;;;4975217;28;20047;-66
2022/09/27 01:35:23;;;;;;;3.80;0.80;;;;;;;;;;4974942;28;20403;-66
2022/09/27 01:38:06;;;;;;;6.28;1.15;;;;;;;;;;4974826;28;20061;-66
2022/09/27 01:40:33;;;;;;;4.72;0.75;;;;;;;;;;4975048;28;20051;-66
2022/09/27 01:43:04;;;;;;;7.00;1.10;;;;;;;;;;4975029;28;20456;-66
2022/09/27 01:45:51;;;;;;;5.38;1.30;;;;;;;;;;4974742;28;20513;-66
2022/09/27 01:48:21;;;;;;;4.13;0.50;;;;;;;;;;4974714;28;20396;-66
2022/09/27 01:51:06;;;;;;;5.35;1.20;;;;;;;;;;4974578;28;20499;-66
2022/09/27 01:53:35;;;;;;;5.60;1.52;;;;;;;;;;4974242;28;20054;-66
2022/09/27 01:56:05;;;;;;;4.78;1.30;;;;;;;;;;4974402;28;20574;-66
2022/09/27 01:58:35;;;;;;;5.95;0.98;;;;;;;;;;4974724;28;20051;-66
2022/09/27 02:01:02;;;;;;;6.20;1.30;;;;;;;;;;4974511;28;20042;-67
2022/09/27 02:03:32;;;;;;;5.97;0.73;;;;;;;;;;4974609;28;20042;-66
2022/09/27 02:06:00;;;;;;;4.68;0.80;;;;;;;;;;4974547;28;20055;-66
2022/09/27 02:08:35;;;;;;;4.55;0.80;;;;;;;;;;4974061;28;20498;-66
2022/09/27 02:11:03;;;;;;;8.20;1.52;;;;;;;;;;4974536;28;20054;-66
2022/09/27 02:13:43;;;;;;;5.13;1.52;;;;;;;;;;4974141;28;20066;-66
2022/09/27 02:16:12;;;;;;;3.03;0.85;;;;;;;;;;4974431;28;20047;-66
2022/09/27 02:18:58;;;;;;;4.93;0.82;;;;;;;;;;4974327;28;20146;-66
2022/09/27 02:21:26;;;;;;;4.40;0.70;;;;;;;;;;4974035;28;20055;-66
2022/09/27 02:23:55;;;;;;;6.82;1.58;;;;;;;;;;4974180;28;20051;-66
2022/09/27 02:26:30;;;;;;;6.55;1.40;;;;;;;;;;4974006;28;20058;-66
2022/09/27 02:29:06;;;;;;;5.78;1.25;;;;;;;;;;4974239;28;20063;-66
2022/09/27 02:31:32;;;;;;;5.10;1.08;;;;;;;;;;4974206;28;20442;-66
2022/09/27 02:34:04;;;;;;;6.47;1.42;;;;;;;;;;4973759;28;20462;-66
2022/09/27 02:36:30;;;;;;;5.72;0.90;;;;;;;;;;4973691;28;20521;-66
2022/09/27 02:38:57;;;;;;;4.70;1.13;;;;;;;;;;4973815;28;20061;-66
2022/09/27 02:41:24;;;;;;;7.75;1.40;;;;;;;;;;4973836;28;20100;-67
2022/09/27 02:43:53;;;;;;;3.40;1.10;;;;;;;;;;4973608;28;20061;-66
2022/09/27 02:46:23;;;;;;;7.57;1.17;;;;;;;;;;4973795;28;20050;-67
2022/09/27 02:48:56;;;;;;;7.07;1.17;;;;;;;;;;4973846;28;20046;-66
2022/09/27 02:51:29;;;;;;;4.65;0.98;;;;;;;;;;4973824;28;20047;-66
2022/09/27 02:53:58;;;;;;;6.35;1.67;;;;;;;;;;4973789;28;20407;-66
2022/09/27 02:56:29;;;;;;;5.47;1.38;;;;;;;;;;4973332;28;20062;-66
2022/09/27 02:59:09;;;;;;;3.95;1.08;;;;;;;;;;4973499;28;20051;-66
2022/09/27 03:01:35;;;;;;;5.40;1.15;;;;;;;;;;4973579;28;20077;-66
2022/09/27 03:04:04;;;;;;;7.50;1.58;;;;;;;;;;4973621;28;20089;-66
2022/09/27 03:06:31;;;;;;;6.78;1.48;;;;;;;;;;4972401;28;20058;-66
2022/09/27 03:08:58;;;;;;;7.57;1.53;;;;;;;;;;4973548;28;20088;-66
2022/09/27 03:11:24;;;;;;;7.13;1.15;;;;;;;;;;4973310;28;20446;-66
2022/09/27 03:13:51;;;;;;;5.22;1.25;;;;;;;;;;4973452;28;20418;-66
2022/09/27 03:16:33;;;;;;;6.32;1.10;;;;;;;;;;4973279;28;20110;-66
2022/09/27 03:19:00;;;;;;;7.57;1.40;;;;;;;;;;4973328;28;20051;-66
2022/09/27 03:21:26;;;;;;;6.45;1.27;;;;;;;;;;4973193;28;20049;-66
2022/09/27 03:23:53;;;;;;;10.77;1.42;;;;;;;;;;4972993;28;20058;-66
2022/09/27 03:26:20;;;;;;;8.90;1.60;;;;;;;;;;4973276;28;20054;-66
2022/09/27 03:28:46;;;;;;;7.70;1.88;;;;;;;;;;4973207;28;20061;-66
2022/09/27 03:31:13;;;;;;;9.45;1.70;;;;;;;;;;4973179;28;20054;-66
2022/09/27 03:33:40;;;;;;;13.18;1.80;;;;;;;;;;4973214;28;20059;-66
2022/09/27 03:36:06;;;;;;;6.15;1.40;;;;;;;;;;4973067;28;20380;-66
2022/09/27 03:38:32;;;;;;;8.35;1.90;;;;;;;;;;4972838;28;20055;-66
2022/09/27 03:40:59;;;;;;;7.60;1.42;;;;;;;;;;4973063;28;20045;-66
2022/09/27 03:43:25;;;;;;;8.98;1.77;;;;;;;;;;4973183;28;20042;-66
2022/09/27 03:45:52;;;;;;;8.70;1.63;;;;;;;;;;4972901;28;20059;-66
2022/09/27 03:48:18;;;;;;;11.30;2.38;;;;;;;;;;4973143;28;20054;-66
2022/09/27 03:50:51;;;;;;;13.23;2.35;;;;;;;;;;4973040;28;20134;-66
2022/09/27 03:53:17;;;;;;;12.70;2.60;;;;;;;;;;4973052;28;20051;-66
2022/09/27 03:55:46;;;;;;;13.15;2.10;;;;;;;;;;4972862;28;20047;-66
2022/09/27 03:58:13;;;;;;;8.73;2.03;;;;;;;;;;4971250;28;20125;-66
2022/09/27 04:00:40;;;;;;;9.43;1.75;;;;;;;;;;4972909;28;20057;-66
2022/09/27 04:03:06;;;;;;;13.90;2.47;;;;;;;;;;4972848;28;20413;-66
2022/09/27 04:05:32;;;;;;;14.13;2.20;;;;;;;;;;4972618;28;20046;-66
2022/09/27 04:07:59;;;;;;;13.55;2.70;;;;;;;;;;4972784;28;20050;-66
2022/09/27 04:10:26;;;;;;;8.02;2.58;;;;;;;;;;4972563;28;20377;-66
2022/09/27 04:12:52;;;;;;;12.75;2.70;;;;;;;;;;4972969;28;20058;-66
2022/09/27 04:15:20;;;;;;;11.52;2.60;;;;;;;;;;4972517;28;20058;-66
2022/09/27 04:17:46;;;;;;;17.35;2.42;;;;;;;;;;4974763;28;20058;-66
2022/09/27 04:20:12;;;;;;;11.38;2.50;;;;;;;;;;4976253;28;20050;-66
2022/09/27 04:22:40;;;;;;;10.90;2.55;;;;;;;;;;4976545;28;20054;-66
2022/09/27 04:25:06;;;;;;;;;;;;;;;;;;4976973;28;20046;-66
2022/09/27 04:27:33;;;;;;;10.95;2.58;;;;;;;;;;4976476;28;19926;-66
2022/09/27 04:29:59;;;;;;;13.90;2.50;;;;;;;;;;4976061;28;20415;-66
2022/09/27 04:32:25;;;;;;;12.00;2.42;;;;;;;;;;4976085;28;20508;-66
2022/09/27 04:37:37;;;;;;;11.82;2.13;;;;;;;;;;4976256;28;20046;-66
2022/09/27 04:40:04;;;;;;;14.18;2.33;;;;;;;;;;4976224;28;20055;-66
2022/09/27 04:42:30;;;;;;;16.85;2.65;;;;;;;;;;4976195;28;20051;-66
2022/09/27 04:44:56;;;;;;;11.82;2.03;;;;;;;;;;4975856;28;20430;-66
2022/09/27 04:47:23;;;;;;;12.48;2.60;;;;;;;;;;4975778;28;20051;-66
2022/09/27 04:49:49;;;;;;;15.95;2.67;;;;;;;;;;4975966;28;20442;-67
2022/09/27 04:52:15;;;;;;;12.75;2.88;;;;;;;;;;4975879;28;20050;-67
2022/09/27 04:54:42;;;;;;;11.93;2.72;;;;;;;;;;4975967;28;20536;-66
2022/09/27 04:57:08;;;;;;;10.77;2.25;;;;;;;;;;4975430;28;20050;-66
2022/09/27 04:59:34;;;;;;;15.52;2.20;;;;;;;;;;4975484;28;20137;-66
2022/09/27 05:02:01;;;;;;;7.50;2.10;;;;;;;;;;4975804;28;20058;-66
2022/09/27 05:04:28;;;;;;;9.10;2.20;;;;;;;;;;4975733;28;20050;-66
2022/09/27 05:06:55;;;;;;;12.43;2.88;;;;;;;;;;4975666;28;20054;-66
2022/09/27 05:09:22;;;;;;;19.10;2.80;;;;;;;;;;4975421;28;20055;-66
2022/09/27 05:11:49;;;;;;;14.27;3.13;;;;;;;;;;4975708;28;20050;-66
2022/09/27 05:14:15;;;;;;;14.93;2.55;;;;;;;;;;4975273;28;20053;-66
2022/09/27 05:16:42;;;;;;;10.75;2.20;;;;;;;;;;4975195;28;20057;-66
2022/09/27 05:19:08;;;;;;;13.60;2.67;;;;;;;;;;4975590;28;20047;-66
2022/09/27 05:21:35;;;;;;;13.00;3.03;;;;;;;;;;4975370;28;20050;-66
2022/09/27 05:24:01;;;;;;;10.57;2.38;;;;;;;;;;4975475;28;20051;-66
2022/09/27 05:26:27;;;;;;;7.05;2.17;;;;;;;;;;4975109;28;20051;-66
2022/09/27 05:28:54;;;;;;;11.77;2.35;;;;;;;;;;4973992;28;20059;-66
2022/09/27 05:31:20;;;;;;;10.50;2.55;;;;;;;;;;4974876;28;20053;-66
2022/09/27 05:33:47;;;;;;;11.07;2.95;;;;;;;;;;4975318;28;20102;-66
2022/09/27 05:36:14;;;;;;;10.80;2.92;;;;;;;;;;4975290;28;20054;-66
2022/09/27 05:38:41;;;;;;;16.10;3.00;;;;;;;;;;4974858;28;20047;-66
2022/09/27 05:41:07;;;;;;;11.95;3.08;;;;;;;;;;4975129;28;20046;-66
2022/09/27 05:43:35;;;;;;;14.70;2.47;;;;;;;;;;4974725;28;20051;-66
2022/09/27 05:46:02;;;;;;;12.75;3.08;;;;;;;;;;4974802;28;20053;-67
2022/09/27 05:48:29;;;;;;;8.57;2.60;;;;;;;;;;4974667;28;20054;-66
2022/09/27 05:50:55;;;;;;;10.30;2.35;;;;;;;;;;4974736;28;20510;-66
2022/09/27 05:53:22;;;;;;;8.88;2.30;;;;;;;;;;4974889;28;20083;-66
2022/09/27 05:55:48;;;;;;;11.10;2.63;;;;;;;;;;4974741;28;20418;-66
2022/09/27 05:58:15;;;;;;;10.93;2.13;;;;;;;;;;4974381;28;20415;-66
2022/09/27 06:00:42;;;;;;;9.90;2.03;;;;;;;;;;4974568;28;20046;-66
2022/09/27 06:03:10;;;;;;;10.95;2.17;;;;;;;;;;4973175;28;20058;-66
2022/09/27 06:05:37;;;;;;;8.75;2.08;;;;;;;;;;4974298;28;20047;-66
2022/09/27 06:08:05;;;;;;;12.23;2.25;;;;;;;;;;4974424;28;20051;-66
2022/09/27 06:10:31;;;;;;;9.52;2.38;;;;;;;;;;4973418;28;20396;-66
2022/09/27 06:13:00;;;;;;;12.32;2.47;;;;;;;;;;4974472;28;20061;-66
2022/09/27 06:15:26;;;;;;;15.02;2.55;;;;;;;;;;4974136;28;20050;-66
2022/09/27 06:17:53;;;;;;;12.25;2.53;;;;;;;;;;4974000;28;20057;-66
2022/09/27 06:20:19;;;;;;;10.65;2.50;;;;;;;;;;4968494;28;20043;-66
2022/09/27 06:22:46;;;;;;;12.00;2.80;;;;;;;;;;4973326;28;20043;-65
2022/09/27 06:25:12;;;;;;;9.57;2.30;;;;;;;;;;4973615;28;20050;-65
2022/09/27 06:27:38;;;;;;;12.00;2.22;;;;;;;;;;4973520;28;20065;-65
2022/09/27 06:30:05;;;;;;;10.85;2.35;;;;;;;;;;4971189;28;20053;-66
2022/09/27 06:32:31;;;;;;;13.68;3.03;;;;;;;;;;4971602;28;20066;-66
2022/09/27 06:34:58;;;;;;;9.70;2.90;;;;;;;;;;4966966;28;20051;-65
2022/09/27 06:37:25;;;;;;;12.20;2.50;;;;;;;;;;4972222;28;20072;-65
2022/09/27 06:39:52;;;;;;;10.15;2.17;;;;;;;;;;4973445;28;20053;-66
2022/09/27 06:42:19;;;;;;;11.27;2.83;;;;;;;;;;4973529;28;20053;-66
2022/09/27 06:44:48;;;;;;;10.88;2.13;;;;;;;;;;4973527;28;20487;-69
2022/09/27 06:47:16;;;;;;;11.95;2.47;;;;;;;;;;4973583;28;20491;-66
2022/09/27 06:49:42;;;;;;;11.93;2.83;;;;;;;;;;4971970;28;20055;-64
2022/09/27 06:52:09;;;;;;;11.80;2.47;;;;;;;;;;4973090;28;20050;-67
2022/09/27 06:54:35;;;;;;;12.30;2.47;;;;;;;;;;4973745;28;20054;-66
2022/09/27 06:57:02;;;;;;;12.15;2.53;;;;;;;;;;4962111;28;20051;-67
2022/09/27 07:02:13;;;;;;;16.30;2.88;;;;;;;;;;4972882;28;20047;-66
2022/09/27 07:04:39;;;;;;;12.65;3.22;;;;;;;;;;4973318;28;20055;-66
2022/09/27 07:07:06;;;;;;;16.63;3.42;;;;;;;;;;4972776;28;20053;-66
2022/09/27 07:09:32;;;;;;;14.82;3.00;;;;;;;;;;4972685;28;20495;-66
2022/09/27 07:11:59;;;;;;;15.13;3.45;;;;;;;;;;4973270;28;20053;-67
2022/09/27 07:14:25;;;;;;;14.25;3.03;;;;;;;;;;4973284;28;20517;-66
2022/09/27 07:16:51;;;;;;;17.20;3.30;;;;;;;;;;4973398;28;20051;-66
2022/09/27 07:19:18;;;;;;;15.05;3.30;;;;;;;;;;4973043;28;20039;-66
2022/09/27 07:21:44;;;;;;;17.42;3.28;;;;;;;;;;4973187;28;20055;-66
2022/09/27 07:24:11;;;;;;;14.55;3.15;;;;;;;;;;4973222;28;20380;-66
2022/09/27 07:26:37;;;;;;;18.65;3.50;;;;;;;;;;4972964;28;20054;-65
2022/09/27 07:29:03;;;;;;;16.00;3.28;;;;;;;;;;4972666;28;20060;-67
2022/09/27 07:31:30;;;;;;;15.70;3.60;;;;;;;;;;4972910;28;20415;-66
2022/09/27 07:33:56;;;;;;;16.42;3.55;;;;;;;;;;4973149;28;20056;-66
2022/09/27 07:36:23;;;;;;;15.00;2.88;;;;;;;;;;4972589;28;20061;-66
2022/09/27 07:38:49;;;;;;;20.80;3.80;;;;;;;;;;4972726;28;20049;-66
2022/09/27 07:41:15;;;;;;;17.23;3.85;;;;;;;;;;4972525;28;20600;-66
2022/09/27 07:43:45;;;;;;;16.45;4.13;;;;;;;;;;4972775;28;20047;-66
2022/09/27 07:46:12;;;;;;;17.48;3.85;;;;;;;;;;4973043;28;20046;-66
2022/09/27 07:48:39;;;;;;;18.50;3.72;;;;;;;;;;4972789;28;20182;-66
2022/09/27 07:51:09;;;;;;;16.48;3.33;;;;;;;;;;4973062;28;20052;-67
2022/09/27 07:53:36;;;;;;;14.45;3.05;;;;;;;;;;4973144;28;20522;-66
2022/09/27 07:56:02;;;;;;;15.98;3.75;;;;;;;;;;4975794;28;20050;-66
2022/09/27 07:58:31;;;;;;;16.98;4.30;;;;;;;;;;4975752;28;20057;-66
2022/09/27 08:00:58;;;;;;;15.07;4.03;;;;;;;;;;4975978;28;20073;-67
2022/09/27 08:03:25;;;;;;;18.07;3.93;;;;;;;;;;4976377;28;20109;-66
2022/09/27 08:05:51;;;;;;;18.70;4.13;;;;;;;;;;4976022;28;20057;-66
2022/09/27 08:08:17;;;;;;;19.25;4.05;;;;;;;;;;4976147;28;20055;-67
2022/09/27 08:10:45;;;;;;;18.10;3.95;;;;;;;;;;4975699;28;20062;-66
2022/09/27 08:13:12;;;;;;;13.50;3.28;;;;;;;;;;4976285;28;20149;-66
2022/09/27 08:15:39;;;;;;;17.25;3.95;;;;;;;;;;4975532;28;20054;-66
2022/09/27 08:18:06;;;;;;;17.80;4.05;;;;;;;;;;4975426;28;20047;-67
2022/09/27 08:20:33;;;;;;;13.50;3.70;;;;;;;;;;4974296;28;20053;-67
2022/09/27 08:22:59;;;;;;;16.42;3.58;;;;;;;;;;4975880;28;20055;-66
2022/09/27 08:25:29;;;;;;;19.05;3.65;;;;;;;;;;4975731;28;20046;-66
2022/09/27 08:28:00;;;;;;;20.17;4.20;;;;;;;;;;4975909;28;20418;-67
2022/09/27 08:30:27;;;;;;;16.10;3.47;;;;;;;;;;4975338;28;20578;-66
2022/09/27 08:32:53;;;;;;;;;;;;;;;;;;4974320;28;20051;-66
2022/09/27 08:35:20;;;;;;;13.98;3.75;;;;;;;;;;4974129;28;19926;-68
2022/09/27 08:37:57;;;;;;;11.82;2.70;;;;;;;;;;4969776;28;20043;-68
2022/09/27 08:40:26;;;;;;;13.13;3.65;;;;;;;;;;4975897;28;20074;-67
2022/09/27 08:42:59;;;;;;;15.13;3.70;;;;;;;;;;4974911;28;20061;-67
2022/09/27 08:45:39;;;;;;;17.88;3.78;;;;;;;;;;4975540;28;20047;-67
2022/09/27 08:48:08;;;;;;;16.48;3.42;;;;;;;;;;4975246;28;20486;-67
2022/09/27 08:50:36;;;;;;;13.70;3.60;;;;;;;;;;4975368;28;20065;-67
2022/09/27 08:53:20;;;;;;;14.15;3.55;;;;;;;;;;4975202;28;20059;-68
2022/09/27 08:55:49;;;;;;;13.52;3.45;;;;;;;;;;4975083;28;20046;-67
2022/09/27 08:58:20;;;;;;;13.85;2.65;;;;;;;;;;4974983;28;20046;-67
2022/09/27 09:00:50;;;;;;;14.70;3.13;;;;;;;;;;4975061;28;20046;-69
2022/09/27 09:03:18;;;;;;;13.02;3.22;;;;;;;;;;4973108;28;20051;-69
2022/09/27 09:05:50;;;;;;;13.55;3.30;;;;;;;;;;4974960;28;20042;-69
2022/09/27 09:08:21;;;;;;;11.50;3.47;;;;;;;;;;4975299;28;20058;-69
2022/09/27 09:13:37;;;;;;;13.25;3.08;;;;;;;;;;4974948;28;20422;-69
2022/09/27 09:16:26;;;;;;;10.80;2.80;;;;;;;;;;4975068;28;20383;-69
2022/09/27 09:19:11;;;;;;;12.68;3.30;;;;;;;;;;4959452;28;20047;-70
2022/09/27 09:21:48;;;;;;;19.42;3.78;;;;;;;;;;4972785;28;20461;-69
2022/09/27 09:24:33;;;;;;;13.10;3.20;;;;;;;;;;4974883;28;20053;-69
2022/09/27 09:27:32;;;;;;;17.48;4.32;;;;;;;;;;4974923;28;20061;-69
2022/09/27 09:30:17;;;;;;;13.80;3.03;;;;;;;;;;4943622;28;20055;-68
2022/09/27 09:32:50;;;;;;;13.40;3.30;;;;;;;;;;4972819;28;20821;-68
2022/09/27 09:35:20;;;;;;;16.45;3.50;;;;;;;;;;4975090;28;20047;-68
2022/09/27 09:37:51;;;;;;;15.25;3.38;;;;;;;;;;4974664;28;20043;-68
2022/09/27 09:40:23;;;;;;;10.25;2.58;;;;;;;;;;4974706;28;20046;-69
2022/09/27 09:42:53;;;;;;;11.10;3.00;;;;;;;;;;4974622;28;20063;-69
2022/09/27 09:45:24;;;;;;;11.18;2.80;;;;;;;;;;4974277;28;20066;-68
2022/09/27 09:47:53;;;;;;;12.35;2.70;;;;;;;;;;4974383;28;20059;-69
2022/09/27 09:50:24;;;;;;;11.70;3.00;;;;;;;;;;4974050;28;20063;-68
2022/09/27 09:52:55;;;;;;;12.85;2.67;;;;;;;;;;4974175;28;20490;-69
2022/09/27 09:55:33;;;;;;;10.98;2.30;;;;;;;;;;4974245;28;20470;-69
2022/09/27 09:58:18;;;;;;;11.98;2.60;;;;;;;;;;4974272;28;20055;-69
2022/09/27 10:00:46;;;;;;;11.27;2.85;;;;;;;;;;4974022;28;20054;-68
2022/09/27 10:03:13;;;;;;;9.00;2.72;;;;;;;;;;4974310;28;20050;-68
2022/09/27 10:05:42;;;;;;;12.82;2.88;;;;;;;;;;4973557;28;20043;-68
2022/09/27 10:08:11;;;;;;;10.57;2.45;;;;;;;;;;4973990;28;20057;-68
2022/09/27 10:10:38;;;;;;;10.45;2.55;;;;;;;;;;4973824;28;20065;-68
2022/09/27 10:13:12;;;;;;;10.20;2.58;;;;;;;;;;4973740;28;20502;-68
2022/09/27 10:15:38;;;;;;;10.63;2.78;;;;;;;;;;4973477;28;20059;-67
2022/09/27 10:18:04;;;;;;;11.77;3.20;;;;;;;;;;4973527;28;20062;-67
2022/09/27 10:20:51;;;;;;;11.95;2.50;;;;;;;;;;4971523;28;20518;-67
2022/09/27 10:23:20;;;;;;;9.38;2.45;;;;;;;;;;4973618;28;20039;-67
2022/09/27 10:25:59;;;;;;;11.43;2.30;;;;;;;;;;4973767;28;20043;-67
2022/09/27 10:28:26;;;;;;;14.40;2.67;;;;;;;;;;4973786;28;20047;-67
2022/09/27 10:30:56;;;;;;;10.50;2.90;;;;;;;;;;4965057;28;20079;-67
2022/09/27 10:33:23;;;;;;;10.52;2.25;;;;;;;;;;4953788;28;20051;-67
2022/09/27 10:35:50;;;;;;;16.52;3.95;;;;;;;;;;4954089;28;20062;-67
2022/09/27 10:38:25;;;;;;;11.73;3.08;;;;;;;;;;4953284;28;20491;-67
2022/09/27 10:40:54;;;;;;;10.43;2.67;;;;;;;;;;4953722;28;20051;-68
2022/09/27 10:43:24;;;;;;;12.70;2.58;;;;;;;;;;4957812;28;20053;-67
2022/09/27 10:46:18;;;;;;;10.63;2.85;;;;;;;;;;4972403;28;20053;-67
2022/09/27 10:48:44;;;;;;;10.52;2.30;;;;;;;;;;4973243;28;20051;-67
2022/09/27 10:51:22;;;;;;;6.95;2.10;;;;;;;;;;4973332;28;20058;-67
2022/09/27 10:53:49;;;;;;;13.43;2.88;;;;;;;;;;4972833;28;20145;-67
2022/09/27 10:56:23;;;;;;;12.60;2.97;;;;;;;;;;4972836;28;20512;-67
2022/09/27 10:58:50;;;;;;;10.30;2.47;;;;;;;;;;4972960;28;20065;-67
2022/09/27 11:01:17;;;;;;;12.75;2.67;;;;;;;;;;4972673;28;20049;-67
2022/09/27 11:03:51;;;;;;;13.38;2.90;;;;;;;;;;4972814;28;20057;-67
2022/09/27 11:06:19;;;;;;;13.25;2.75;;;;;;;;;;4973023;28;20061;-67
2022/09/27 11:08:47;;;;;;;14.73;2.83;;;;;;;;;;4972655;28;20105;-67
2022/09/27 11:11:15;;;;;;;14.38;3.03;;;;;;;;;;4972737;28;20495;-67
2022/09/27 11:13:56;;;;;;;11.60;2.60;;;;;;;;;;4972591;28;20128;-66
2022/09/27 11:16:45;;;;;;;15.90;3.22;;;;;;;;;;4953135;28;20062;-66
2022/09/27 11:19:30;;;;;;;11.27;2.88;;;;;;;;;;4953033;28;20102;-67
2022/09/27 11:22:07;;;;;;;15.50;2.88;;;;;;;;;;4960734;28;20047;-67
2022/09/27 11:24:47;;;;;;;13.43;2.67;;;;;;;;;;4971384;28;20047;-68
2022/09/27 11:27:32;;;;;;;17.05;3.08;;;;;;;;;;4961621;28;20051;-68
2022/09/27 11:29:58;;;;;;;16.17;3.30;;;;;;;;;;4965135;28;20043;-67
2022/09/27 11:32:43;;;;;;;15.43;3.30;;;;;;;;;;4972670;28;20047;-67
2022/09/27 11:35:32;;;;;;;14.18;3.20;;;;;;;;;;4972439;28;20507;-67
2022/09/27 11:38:16;;;;;;;14.60;3.40;;;;;;;;;;4972303;28;20078;-67
2022/09/27 11:41:02;;;;;;;18.05;3.50;;;;;;;;;;4972443;28;20424;-67
2022/09/27 11:43:47;;;;;;;13.93;3.45;;;;;;;;;;4972306;28;20051;-67
2022/09/27 11:46:28;;;;;;;21.23;4.05;;;;;;;;;;4959242;28;20046;-66
2022/09/27 11:49:11;;;;;;;17.13;3.97;;;;;;;;;;4972395;28;20054;-67
2022/09/27 11:51:56;;;;;;;18.42;3.90;;;;;;;;;;4971303;28;20066;-67
2022/09/27 11:54:23;;;;;;;15.25;3.00;;;;;;;;;;4972118;28;20058;-67
2022/09/27 11:57:03;;;;;;;14.75;3.25;;;;;;;;;;4963678;28;20059;-67
2022/09/27 11:59:29;;;;;;;12.77;3.03;;;;;;;;;;4968610;28;20068;-68
2022/09/27 12:01:56;;;;;;;10.70;3.08;;;;;;;;;;4972060;28;20051;-68
2022/09/27 12:04:42;;;;;;;11.57;2.60;;;;;;;;;;4972281;28;20062;-67
2022/09/27 12:07:32;;;;;;;11.68;2.88;;;;;;;;;;4971992;28;20057;-66
2022/09/27 12:10:02;;;;;;;11.90;3.10;;;;;;;;;;4953095;28;20058;-67
2022/09/27 12:12:31;;;;;;;10.43;2.72;;;;;;;;;;4972005;28;20058;-68
2022/09/27 12:15:23;;;;;;;12.52;3.17;;;;;;;;;;4972080;28;20054;-67
2022/09/27 12:17:54;;;;;;;11.13;2.50;;;;;;;;;;4969996;28;20059;-67
2022/09/27 12:20:23;;;;;;;9.05;2.60;;;;;;;;;;4968636;28;20058;-67
2022/09/27 12:22:50;;;;;;;13.15;3.08;;;;;;;;;;4972099;28;20130;-67
2022/09/27 12:25:28;;;;;;;8.70;2.17;;;;;;;;;;4972147;28;20050;-66
2022/09/27 12:28:04;;;;;;;10.82;2.40;;;;;;;;;;4971861;28;20058;-67
2022/09/27 12:30:33;;;;;;;11.32;2.75;;;;;;;;;;4956859;28;20058;-67
2022/09/27 12:33:18;;;;;;;10.13;2.58;;;;;;;;;;4971837;28;20055;-67
2022/09/27 12:35:53;;;;;;;9.88;2.20;;;;;;;;;;4957071;28;20510;-66
2022/09/27 12:38:28;;;;;;;8.80;2.40;;;;;;;;;;4972746;28;20410;-67
2022/09/27 12:40:57;;;;;;;10.32;2.65;;;;;;;;;;4966768;28;20505;-67
2022/09/27 12:43:27;;;;;;;10.77;2.50;;;;;;;;;;4964846;28;20062;-67
2022/09/27 12:46:03;;;;;;;10.00;2.35;;;;;;;;;;4962237;28;20051;-68
2022/09/27 12:48:32;;;;;;;6.88;2.17;;;;;;;;;;4975537;28;20050;-67
2022/09/27 12:51:07;;;;;;;10.70;2.40;;;;;;;;;;4975472;28;20078;-67
2022/09/27 12:53:33;;;;;;;6.57;2.47;;;;;;;;;;4975449;28;20154;-67
2022/09/27 12:56:14;;;;;;;8.05;2.22;;;;;;;;;;4975064;28;20051;-68
2022/09/27 12:58:51;;;;;;;8.30;2.10;;;;;;;;;;4975303;28;20047;-67
2022/09/27 13:01:26;;;;;;;7.80;2.33;;;;;;;;;;4975201;28;20049;-68
2022/09/27 13:04:09;;;;;;;8.35;2.22;;;;;;;;;;4974983;28;20058;-67
2022/09/27 13:06:38;;;;;;;8.85;2.67;;;;;;;;;;4975141;28;20051;-67
2022/09/27 13:09:32;;;;;;;10.15;2.72;;;;;;;;;;4970419;28;20063;-67
2022/09/27 13:12:28;;;;;;;9.15;2.80;;;;;;;;;;4969289;28;20057;-67
2022/09/27 13:14:59;;;;;;;10.27;2.90;;;;;;;;;;4965350;28;20062;-67
2022/09/27 13:17:32;;;;;;;12.88;3.47;;;;;;;;;;4955169;28;20415;-67
2022/09/27 13:19:58;;;;;;;11.05;3.15;;;;;;;;;;4970184;28;20046;-67
2022/09/27 13:22:39;;;;;;;9.13;2.85;;;;;;;;;;4974718;28;20483;-67
2022/09/27 13:25:34;;;;;;;12.05;3.25;;;;;;;;;;4974811;28;20068;-67
2022/09/27 13:28:01;;;;;;;14.85;4.72;;;;;;;;;;4936253;28;20058;-67
2022/09/27 13:30:27;;;;;;;15.65;4.55;;;;;;;;;;4974109;28;20063;-67
2022/09/27 13:33:09;;;;;;;13.38;5.53;;;;;;;;;;4974759;28;20133;-67
2022/09/27 13:35:35;;;;;;;12.50;4.50;;;;;;;;;;4974675;28;20046;-67
2022/09/27 13:38:04;;;;;;;12.50;4.03;;;;;;;;;;4974637;28;20047;-67
2022/09/27 13:40:35;;;;;;;15.68;3.20;;;;;;;;;;4974494;28;20134;-67
2022/09/27 13:43:04;;;;;;;12.48;2.92;;;;;;;;;;4965255;28;20054;-67
2022/09/27 13:45:33;;;;;;;11.27;3.00;;;;;;;;;;4954345;28;20051;-67
2022/09/27 13:48:00;;;;;;;11.75;2.60;;;;;;;;;;4954398;28;20405;-67
2022/09/27 13:50:27;;;;;;;14.18;4.13;;;;;;;;;;4953498;28;20049;-67
2022/09/27 13:53:02;;;;;;;16.98;5.65;;;;;;;;;;4954442;28;20055;-66
2022/09/27 13:55:39;;;;;;;13.13;4.05;;;;;;;;;;4954433;28;20055;-67
2022/09/27 13:58:17;;;;;;;11.52;3.60;;;;;;;;;;4954455;28;20047;-67
2022/09/27 14:00:47;;;;;;;14.32;4.95;;;;;;;;;;4969290;28;20507;-67
2022/09/27 14:03:22;;;;;;;16.65;4.28;;;;;;;;;;4973926;28;20392;-66
2022/09/27 14:05:57;;;;;;;18.40;4.15;;;;;;;;;;4973842;28;20054;-67
2022/09/27 14:08:32;;;;;;;17.92;4.18;;;;;;;;;;4959910;28;20047;-67
2022/09/27 14:11:00;;;;;;;14.82;3.83;;;;;;;;;;4973752;28;20062;-68
2022/09/27 14:13:27;;;;;;;13.50;3.88;;;;;;;;;;4956932;28;20249;-67
2022/09/27 14:15:54;;;;;;;12.32;3.42;;;;;;;;;;4972148;28;20517;-67
2022/09/27 14:18:21;;;;;;;8.93;2.65;;;;;;;;;;4972439;28;20050;-67
2022/09/27 14:20:50;;;;;;;13.15;3.03;;;;;;;;;;4972067;28;20702;-67
2022/09/27 14:23:19;;;;;;;12.23;3.38;;;;;;;;;;4973995;28;20070;-67
2022/09/27 14:25:46;;;;;;;14.65;3.47;;;;;;;;;;4959303;28;20059;-67
2022/09/27 14:28:36;;;;;;;13.63;3.45;;;;;;;;;;4973514;28;20054;-67
2022/09/27 14:31:16;;;;;;;9.77;2.92;;;;;;;;;;4973291;28;20379;-67
2022/09/27 14:33:43;;;;;;;14.82;3.38;;;;;;;;;;4959408;28;20055;-67
2022/09/27 14:39:20;;;;;;;13.55;3.80;;;;;;;;;;4973497;28;20046;-68
2022/09/27 14:41:47;;;;;;;13.13;3.10;;;;;;;;;;4969229;28;20066;-67
2022/09/27 14:44:15;;;;;;;16.65;3.65;;;;;;;;;;4955976;28;20061;-67
2022/09/27 14:46:41;;;;;;;17.95;3.50;;;;;;;;;;4973395;28;20062;-68
2022/09/27 14:49:22;;;;;;;16.58;3.47;;;;;;;;;;4973168;28;20097;-67
2022/09/27 14:51:52;;;;;;;16.23;3.72;;;;;;;;;;4973102;28;20062;-67
2022/09/27 14:54:24;;;;;;;14.27;3.15;;;;;;;;;;4973044;28;20503;-67
2022/09/27 14:56:50;;;;;;;16.50;3.55;;;;;;;;;;4973308;28;20062;-67
2022/09/27 14:59:29;;;;;;;20.95;3.95;;;;;;;;;;4973167;28;20499;-68
2022/09/27 15:01:59;;;;;;;16.15;3.95;;;;;;;;;;4972731;28;20134;-67
2022/09/27 15:04:26;;;;;;;16.92;3.70;;;;;;;;;;4958357;28;20051;-67
2022/09/27 15:06:54;;;;;;;15.55;3.03;;;;;;;;;;4972990;28;20133;-67